Time;durP1;ratioP1;P1;durP2;ratioP2;P2;SDS_P1;SDS_P2;PMS_P1;PMS_P2;Temp;Humidity;BMP_temperature;BMP_pressure;BME280_temperature;BME280_humidity;BME280_pressure;Samples;Min_cycle;Max_cycle;Signal;HPM_P1;HPM_P2
2022/04/15 00:02:13;;;;;;;9.93;6.35;;;10.80;99.90;;;;;;5027775;28;20077;-84
2022/04/15 00:05:11;;;;;;;9.82;6.43;;;10.80;99.90;;;;;;5028009;28;20197;-84
2022/04/15 00:08:11;;;;;;;12.32;6.28;;;10.70;99.90;;;;;;5018586;28;20046;-85
2022/04/15 00:10:59;;;;;;;10.52;6.47;;;10.70;99.90;;;;;;5022906;28;20046;-84
2022/04/15 00:13:50;;;;;;;13.05;6.93;;;10.70;99.90;;;;;;5036732;28;20105;-84
2022/04/15 00:16:43;;;;;;;11.48;6.35;;;10.80;99.90;;;;;;5025691;28;20120;-84
2022/04/15 00:19:30;;;;;;;8.52;5.97;;;10.80;99.90;;;;;;5016227;28;20518;-83
2022/04/15 00:22:20;;;;;;;9.68;6.05;;;10.80;99.90;;;;;;5020042;28;20053;-84
2022/04/15 00:25:09;;;;;;;11.23;6.35;;;10.80;99.90;;;;;;5023614;28;20065;-84
2022/04/15 00:28:00;;;;;;;14.02;6.20;;;10.80;99.90;;;;;;5012252;28;20042;-84
2022/04/15 00:30:48;;;;;;;12.57;6.47;;;10.80;99.90;;;;;;5005399;28;20117;-84
2022/04/15 00:33:37;;;;;;;12.98;6.18;;;10.70;99.90;;;;;;5012073;28;20046;-85
2022/04/15 00:36:24;;;;;;;10.75;5.93;;;10.70;99.90;;;;;;5012299;28;20042;-85
2022/04/15 00:39:12;;;;;;;12.18;7.20;;;10.60;99.90;;;;;;5009520;28;20207;-85
2022/04/15 00:42:01;;;;;;;13.02;6.80;;;10.60;99.90;;;;;;5015220;28;20423;-84
2022/04/15 00:44:55;;;;;;;12.43;7.30;;;10.50;99.90;;;;;;5013121;28;20041;-84
2022/04/15 00:47:54;;;;;;;11.52;7.18;;;10.50;99.90;;;;;;5013804;28;20065;-85
2022/04/15 00:50:41;;;;;;;17.35;8.55;;;10.60;99.90;;;;;;5000431;28;20426;-84
2022/04/15 00:53:29;;;;;;;12.85;8.18;;;10.60;99.90;;;;;;5004174;28;20061;-85
2022/04/15 00:56:17;;;;;;;14.77;8.27;;;10.60;99.90;;;;;;5014041;28;20054;-84
2022/04/15 00:59:07;;;;;;;13.77;8.25;;;10.60;99.90;;;;;;5006685;28;20131;-84
2022/04/15 01:01:54;;;;;;;20.05;9.32;;;10.60;99.90;;;;;;5000146;28;20041;-84
2022/04/15 01:04:43;;;;;;;11.77;7.93;;;10.60;99.90;;;;;;5009596;28;20131;-85
2022/04/15 01:07:37;;;;;;;17.52;8.52;;;10.50;99.90;;;;;;4995684;28;20055;-85
2022/04/15 01:10:26;;;;;;;12.23;7.93;;;10.50;99.90;;;;;;5001949;28;20041;-83
2022/04/15 01:13:17;;;;;;;13.30;8.18;;;10.40;99.90;;;;;;5001667;28;20064;-84
2022/04/15 01:16:10;;;;;;;12.77;8.20;;;10.40;99.90;;;;;;5009597;28;20046;-84
2022/04/15 01:18:57;;;;;;;14.40;8.68;;;10.30;99.90;;;;;;5012634;28;20060;-84
2022/04/15 01:21:46;;;;;;;11.70;8.25;;;10.20;99.90;;;;;;4999386;28;20053;-84
2022/04/15 01:24:33;;;;;;;12.65;8.80;;;10.20;99.90;;;;;;5003498;28;20352;-83
2022/04/15 01:27:33;;;;;;;13.20;7.85;;;10.10;99.90;;;;;;5011036;28;20049;-84
2022/04/15 01:30:23;;;;;;;13.48;8.52;;;10.10;99.90;;;;;;5006409;28;20483;-84
2022/04/15 01:33:10;;;;;;;13.57;8.40;;;10.00;99.90;;;;;;5012196;28;20088;-83
2022/04/15 01:36:01;;;;;;;15.65;9.40;;;10.00;99.90;;;;;;5003186;28;20046;-84
2022/04/15 01:38:48;;;;;;;13.88;9.30;;;9.90;99.90;;;;;;5001506;28;20160;-84
2022/04/15 01:41:40;;;;;;;11.38;8.85;;;10.00;99.90;;;;;;5006122;28;20041;-85
2022/04/15 01:44:27;;;;;;;15.90;8.75;;;10.00;99.90;;;;;;5011738;28;20345;-85
2022/04/15 01:47:18;;;;;;;13.82;8.45;;;10.10;99.90;;;;;;5004355;28;20042;-84
2022/04/15 01:50:09;;;;;;;12.27;8.45;;;10.10;99.90;;;;;;5005329;28;20219;-84
2022/04/15 01:52:58;;;;;;;11.43;8.23;;;10.20;99.90;;;;;;5012969;28;20061;-84
2022/04/15 01:55:46;;;;;;;14.50;8.65;;;10.30;99.90;;;;;;5002132;28;20077;-84
2022/04/15 01:58:35;;;;;;;20.50;8.93;;;10.40;99.90;;;;;;5008209;28;20297;-84
2022/04/15 02:01:22;;;;;;;13.40;7.95;;;10.60;99.90;;;;;;5005695;28;20324;-84
2022/04/15 02:04:10;;;;;;;13.77;7.75;;;10.70;99.90;;;;;;5008378;28;20042;-84
2022/04/15 02:06:57;;;;;;;13.23;7.63;;;10.70;99.90;;;;;;5013574;28;20057;-85
2022/04/15 02:09:44;;;;;;;12.82;7.40;;;10.70;99.90;;;;;;5012695;28;20049;-84
2022/04/15 02:12:32;;;;;;;11.13;7.78;;;10.60;99.90;;;;;;5012163;28;20065;-84
2022/04/15 02:15:24;;;;;;;15.95;7.25;;;10.60;99.90;;;;;;5006624;28;20056;-84
2022/04/15 02:18:12;;;;;;;13.67;7.97;;;10.60;99.90;;;;;;5011329;28;20152;-84
2022/04/15 02:20:59;;;;;;;12.73;8.35;;;10.50;99.90;;;;;;5008475;28;20053;-84
2022/04/15 02:23:47;;;;;;;10.82;8.57;;;10.40;99.90;;;;;;5006829;28;20050;-84
2022/04/15 02:26:34;;;;;;;13.70;8.35;;;10.30;99.90;;;;;;5008790;28;20046;-84
2022/04/15 02:29:21;;;;;;;16.42;8.43;;;10.20;99.90;;;;;;5009154;28;20414;-84
2022/04/15 02:32:09;;;;;;;16.65;9.05;;;10.20;99.90;;;;;;5001376;28;20073;-84
2022/04/15 02:34:56;;;;;;;11.63;8.70;;;10.10;99.90;;;;;;5004594;28;20104;-84
2022/04/15 02:37:43;;;;;;;13.88;8.38;;;10.00;99.90;;;;;;5005067;28;20045;-84
2022/04/15 02:40:30;;;;;;;15.45;9.02;;;10.00;99.90;;;;;;5006494;28;20049;-83
2022/04/15 02:43:18;;;;;;;18.20;9.25;;;10.00;99.90;;;;;;5011272;28;20042;-84
2022/04/15 02:46:12;;;;;;;15.93;9.23;;;10.10;99.90;;;;;;5012833;28;20050;-83
2022/04/15 02:48:59;;;;;;;12.15;7.85;;;10.10;99.90;;;;;;5012957;28;20057;-83
2022/04/15 02:51:49;;;;;;;12.07;9.20;;;10.20;99.90;;;;;;5013256;28;20084;-83
2022/04/15 02:54:36;;;;;;;10.10;8.40;;;10.10;99.90;;;;;;5009448;28;20443;-84
2022/04/15 02:57:23;;;;;;;12.85;8.20;;;10.10;99.90;;;;;;5012204;28;20045;-83
2022/04/15 03:00:12;;;;;;;16.77;8.70;;;10.00;99.90;;;;;;5002782;28;20059;-84
2022/04/15 03:03:00;;;;;;;16.38;8.45;;;10.00;99.90;;;;;;5010494;28;20261;-84
2022/04/15 03:05:48;;;;;;;15.55;8.48;;;10.00;99.90;;;;;;5011720;28;20038;-84
2022/04/15 03:08:38;;;;;;;13.60;8.18;;;9.90;99.90;;;;;;5005824;28;20065;-84
2022/04/15 03:11:25;;;;;;;14.48;9.43;;;9.90;99.90;;;;;;5006874;28;20430;-84
2022/04/15 03:14:12;;;;;;;19.02;9.20;;;9.90;99.90;;;;;;5012042;28;20075;-86
2022/04/15 03:17:04;;;;;;;16.25;9.50;;;9.90;99.90;;;;;;5007317;28;20046;-84
2022/04/15 03:19:51;;;;;;;14.93;10.48;;;9.80;99.90;;;;;;5003848;28;20105;-84
2022/04/15 03:22:43;;;;;;;16.23;10.43;;;9.80;99.90;;;;;;5000669;28;20062;-84
2022/04/15 03:25:41;;;;;;;17.48;10.32;;;9.70;99.90;;;;;;5012039;28;20065;-85
2022/04/15 03:28:28;;;;;;;17.17;10.43;;;9.60;99.90;;;;;;5011649;28;20057;-85
2022/04/15 03:31:15;;;;;;;15.13;9.93;;;9.60;99.90;;;;;;5013710;28;20443;-85
2022/04/15 03:34:02;;;;;;;16.10;9.25;;;9.60;99.90;;;;;;5009064;28;20056;-83
2022/04/15 03:36:50;;;;;;;19.13;10.05;;;9.50;99.90;;;;;;5017311;28;20096;-85
2022/04/15 03:39:37;;;;;;;16.75;11.07;;;9.40;99.90;;;;;;5015671;28;20436;-83
2022/04/15 03:42:24;;;;;;;17.25;10.25;;;9.40;99.90;;;;;;5015575;28;20042;-85
2022/04/15 03:45:19;;;;;;;18.42;10.80;;;9.40;99.90;;;;;;5014997;28;20466;-85
2022/04/15 03:48:08;;;;;;;17.85;11.38;;;9.40;99.90;;;;;;5013028;28;20124;-85
2022/04/15 03:50:55;;;;;;;16.17;10.68;;;9.40;99.90;;;;;;5006941;28;20053;-85
2022/04/15 03:53:43;;;;;;;19.88;10.82;;;9.40;99.90;;;;;;5009212;28;20054;-85
2022/04/15 03:56:33;;;;;;;18.90;11.05;;;9.40;99.90;;;;;;5006928;28;20204;-85
2022/04/15 03:59:21;;;;;;;14.85;10.30;;;9.40;99.90;;;;;;5005239;28;20422;-85
2022/04/15 04:02:08;;;;;;;17.60;10.43;;;9.50;99.90;;;;;;5009325;28;20069;-86
2022/04/15 04:04:55;;;;;;;20.40;11.82;;;9.50;99.90;;;;;;5015998;28;20046;-85
2022/04/15 04:07:44;;;;;;;16.90;11.00;;;9.40;99.90;;;;;;5013670;28;20058;-89
2022/04/15 04:10:33;;;;;;;19.65;11.43;;;9.40;99.90;;;;;;5007321;28;20057;-91
2022/04/15 04:13:20;;;;;;;20.70;11.73;;;9.40;99.90;;;;;;5012906;28;20057;-90
2022/04/15 04:16:09;;;;;;;17.70;12.05;;;9.30;99.90;;;;;;5028610;28;20057;-89
2022/04/15 04:19:03;;;;;;;17.08;11.70;;;9.30;99.90;;;;;;5035361;28;20050;-90
2022/04/15 04:21:52;;;;;;;22.05;12.93;;;9.30;99.90;;;;;;5033634;28;20046;-89
2022/04/15 04:24:39;;;;;;;21.50;13.25;;;9.10;99.90;;;;;;5027594;28;20046;-89
2022/04/15 04:27:30;;;;;;;17.27;12.55;;;9.10;99.90;;;;;;5024352;28;20049;-89
2022/04/15 04:30:17;;;;;;;27.95;13.52;;;9.10;99.90;;;;;;5024883;28;20053;-88
2022/04/15 04:33:12;;;;;;;19.13;12.95;;;8.90;99.90;;;;;;5019087;28;20108;-90
2022/04/15 04:36:02;;;;;;;19.95;13.30;;;8.90;99.90;;;;;;5022858;28;20053;-90
2022/04/15 04:38:50;;;;;;;24.88;14.52;;;8.80;99.90;;;;;;5022936;28;20069;-91
2022/04/15 04:41:41;;;;;;;29.73;14.50;;;8.70;99.90;;;;;;5027980;28;20211;-90
2022/04/15 04:44:37;;;;;;;20.13;14.35;;;8.60;99.90;;;;;;5025037;28;20050;-88
2022/04/15 04:47:28;;;;;;;21.63;13.45;;;8.70;99.90;;;;;;5029042;28;20038;-90
2022/04/15 04:50:21;;;;;;;27.55;14.10;;;8.70;99.90;;;;;;5029406;28;20112;-90
2022/04/15 04:53:08;;;;;;;23.75;13.88;;;8.70;99.90;;;;;;5027664;28;20053;-90
2022/04/15 04:55:56;;;;;;;20.88;12.10;;;8.70;99.90;;;;;;5029123;28;20049;-90
2022/04/15 04:58:45;;;;;;;19.77;12.43;;;8.70;99.90;;;;;;5032258;28;20124;-87
2022/04/15 05:01:34;;;;;;;21.23;12.43;;;8.70;99.90;;;;;;5042701;28;20061;-89
2022/04/15 05:04:22;;;;;;;20.73;12.85;;;8.70;99.90;;;;;;5022949;28;20173;-92
2022/04/15 05:07:09;;;;;;;20.02;12.35;;;8.70;99.90;;;;;;5009432;28;20066;-90
2022/04/15 05:09:57;;;;;;;23.85;13.77;;;8.80;99.90;;;;;;5017813;28;20070;-90
2022/04/15 05:12:45;;;;;;;21.52;14.45;;;8.80;99.90;;;;;;5025745;28;20104;-89
2022/04/15 05:15:35;;;;;;;20.65;14.18;;;8.80;99.90;;;;;;5026859;28;20473;-88
2022/04/15 05:18:27;;;;;;;27.98;14.63;;;9.00;99.90;;;;;;5018484;28;20430;-91
2022/04/15 05:21:55;;;;;;;29.50;14.50;;;9.00;99.90;;;;;;5024944;28;20113;-88
2022/04/15 05:24:48;;;;;;;22.95;14.43;;;9.20;99.90;;;;;;5026835;28;20041;-90
2022/04/15 05:28:06;;;;;;;21.08;14.35;;;9.30;99.90;;;;;;5009864;28;20372;-90
2022/04/15 05:31:42;;;;;;;26.13;13.50;;;9.50;99.90;;;;;;5021278;28;20502;-88
2022/04/15 05:35:23;;;;;;;19.08;12.98;;;9.70;99.90;;;;;;4979565;28;20162;-87
2022/04/15 05:38:55;;;;;;;;;;;;;;;;;;;;;
2022/04/15 05:42:08;;;;;;;;;;;;;;;;;;;;;
2022/04/15 05:44:59;;;;;;;23.60;13.25;;;10.00;99.90;;;;;;4922983;29;20185;-88
2022/04/15 05:47:57;;;;;;;21.38;13.00;;;10.20;99.90;;;;;;4918037;29;20055;-89
2022/04/15 05:50:47;;;;;;;21.80;12.40;;;10.30;99.90;;;;;;4982024;28;20050;-90
2022/04/15 05:53:40;;;;;;;19.95;12.35;;;10.50;99.90;;;;;;4961868;28;20063;-90
2022/04/15 05:56:34;;;;;;;18.75;11.82;;;10.60;99.90;;;;;;5009463;28;20464;-90
2022/04/15 05:59:36;;;;;;;;;;;;;;;;;;;;;
2022/04/15 06:02:35;;;;;;;22.23;11.68;;;10.90;99.90;;;;;;5018699;28;20101;-89
2022/04/15 06:05:38;;;;;;;19.17;12.25;;;11.00;99.90;;;;;;5023984;28;20050;-91
2022/04/15 06:08:34;;;;;;;18.77;10.73;;;11.20;99.90;;;;;;5032920;28;20092;-85
2022/04/15 06:12:05;;;;;;;17.60;10.32;;;11.40;99.90;;;;;;5027826;28;20050;-87
2022/04/15 06:14:53;;;;;;;13.65;9.75;;;11.50;99.90;;;;;;5022647;28;20333;-84
2022/04/15 06:17:42;;;;;;;21.08;11.75;;;11.50;99.90;;;;;;5027096;28;20045;-83
2022/04/15 06:20:30;;;;;;;16.08;10.35;;;11.60;99.90;;;;;;5014426;28;20419;-86
2022/04/15 06:23:18;;;;;;;18.27;10.50;;;11.70;99.90;;;;;;5024405;28;20038;-86
2022/04/15 06:26:09;;;;;;;19.05;11.05;;;11.80;99.90;;;;;;5021634;28;20497;-82
2022/04/15 06:28:59;;;;;;;;;;;12.00;99.90;;;;;;5020297;28;20474;-85
2022/04/15 06:31:47;;;;;;;19.08;11.15;;;12.20;99.90;;;;;;5020158;28;20250;-86
2022/04/15 06:34:38;;;;;;;16.15;9.57;;;12.40;99.90;;;;;;5011619;28;20056;-83
2022/04/15 06:37:25;;;;;;;14.68;10.35;;;12.70;99.90;;;;;;4998379;28;20077;-82
2022/04/15 06:40:15;;;;;;;13.23;9.57;;;12.90;99.90;;;;;;5008995;28;20073;-85
2022/04/15 06:43:03;;;;;;;16.35;10.27;;;13.00;99.90;;;;;;5007679;28;20175;-85
2022/04/15 06:45:54;;;;;;;13.27;10.23;;;13.30;99.90;;;;;;5009747;28;20061;-86
2022/04/15 06:49:04;;;;;;;17.35;11.23;;;13.70;99.90;;;;;;5022023;28;20034;-87
2022/04/15 06:51:54;;;;;;;17.73;11.77;;;14.30;99.90;;;;;;5011425;28;20049;-86
2022/04/15 06:54:44;;;;;;;18.67;13.15;;;14.80;99.90;;;;;;5007349;28;20089;-84
2022/04/15 06:57:32;;;;;;;22.40;14.13;;;15.20;99.90;;;;;;5009485;28;20045;-84
2022/04/15 07:00:22;;;;;;;24.38;13.63;;;15.70;99.90;;;;;;5008413;28;20038;-85
2022/04/15 07:03:10;;;;;;;19.35;12.70;;;16.10;99.90;;;;;;4997999;28;20145;-84
2022/04/15 07:06:07;;;;;;;18.63;13.50;;;16.50;99.90;;;;;;5009059;28;20050;-84
2022/04/15 07:08:56;;;;;;;16.77;13.13;;;16.70;99.90;;;;;;5012617;28;20426;-86
2022/04/15 07:11:43;;;;;;;16.02;11.35;;;17.40;99.90;;;;;;5002107;28;20072;-84
2022/04/15 07:14:33;;;;;;;18.58;12.75;;;18.00;99.90;;;;;;4998650;28;20053;-84
2022/04/15 07:17:20;;;;;;;14.23;11.73;;;18.30;99.90;;;;;;5013811;28;20060;-86
2022/04/15 07:20:08;;;;;;;16.92;11.77;;;18.50;99.90;;;;;;5001909;28;20046;-88
2022/04/15 07:23:15;;;;;;;17.08;12.30;;;18.20;99.90;;;;;;5012665;28;20050;-89
2022/04/15 07:26:05;;;;;;;17.05;11.57;;;18.70;99.90;;;;;;5012604;28;20038;-88
2022/04/15 07:28:57;;;;;;;17.63;13.18;;;18.90;98.30;;;;;;5007864;28;20050;-88
2022/04/15 07:31:44;;;;;;;15.55;12.25;;;18.60;97.90;;;;;;5014504;28;20030;-87
2022/04/15 07:34:32;;;;;;;16.77;13.70;;;18.20;99.60;;;;;;5024283;28;20050;-89
2022/04/15 07:37:22;;;;;;;17.60;12.05;;;18.40;98.80;;;;;;5007187;28;20046;-86
2022/04/15 07:40:10;;;;;;;19.83;12.68;;;18.80;98.60;;;;;;5010142;28;20049;-88
2022/04/15 07:42:58;;;;;;;17.77;12.02;;;19.30;96.90;;;;;;5013181;28;20053;-87
2022/04/15 07:45:47;;;;;;;15.52;12.57;;;19.70;94.30;;;;;;5013097;28;20061;-88
2022/04/15 07:48:37;;;;;;;18.58;12.90;;;19.80;93.40;;;;;;5011588;28;20499;-89
2022/04/15 07:51:24;;;;;;;17.85;13.07;;;19.70;92.20;;;;;;5014799;28;20064;-88
2022/04/15 07:54:12;;;;;;;15.52;12.38;;;19.80;92.90;;;;;;5012248;28;20052;-89
2022/04/15 07:57:00;;;;;;;17.05;12.93;;;20.50;90.00;;;;;;5006950;28;20057;-85
2022/04/15 07:59:47;;;;;;;16.88;12.25;;;20.70;88.40;;;;;;5015116;28;20478;-87
2022/04/15 08:02:35;;;;;;;18.50;13.30;;;21.20;90.80;;;;;;5018184;28;20034;-88
2022/04/15 08:05:22;;;;;;;15.93;12.70;;;21.70;77.60;;;;;;5014890;28;20335;-89
2022/04/15 08:08:11;;;;;;;19.33;12.45;;;22.00;68.40;;;;;;5013519;28;20108;-90
2022/04/15 08:11:01;;;;;;;15.52;12.23;;;21.90;72.10;;;;;;5016634;28;20185;-88
2022/04/15 08:13:49;;;;;;;15.32;11.80;;;21.80;71.10;;;;;;5010144;28;20045;-88
2022/04/15 08:16:36;;;;;;;18.15;13.82;;;21.60;68.60;;;;;;5014168;28;20050;-86
2022/04/15 08:19:25;;;;;;;15.07;11.98;;;21.20;66.70;;;;;;5020442;28;20058;-87
2022/04/15 08:22:15;;;;;;;14.57;10.90;;;21.20;72.30;;;;;;5021289;28;20086;-86
2022/04/15 08:25:04;;;;;;;20.65;14.07;;;21.60;70.90;;;;;;5012142;28;20038;-87
2022/04/15 08:27:52;;;;;;;17.15;13.82;;;21.50;61.70;;;;;;5011468;28;20049;-88
2022/04/15 08:30:39;;;;;;;14.65;12.32;;;20.70;63.90;;;;;;5009523;28;20060;-88
2022/04/15 08:33:27;;;;;;;17.92;13.32;;;20.50;66.00;;;;;;5012765;28;20057;-88
2022/04/15 08:36:15;;;;;;;16.52;13.15;;;20.90;68.50;;;;;;5019590;28;20120;-88
2022/04/15 08:39:02;;;;;;;17.10;12.25;;;21.20;66.50;;;;;;5019676;28;20053;-88
2022/04/15 08:41:53;;;;;;;16.52;12.23;;;20.90;69.80;;;;;;5014688;28;20123;-86
2022/04/15 08:44:43;;;;;;;15.02;12.48;;;20.80;70.70;;;;;;5021527;28;20038;-87
2022/04/15 08:47:31;;;;;;;15.07;11.68;;;21.20;66.70;;;;;;5020537;28;20046;-87
2022/04/15 08:50:19;;;;;;;16.83;11.13;;;21.90;64.90;;;;;;5017641;28;20062;-88
2022/04/15 08:53:08;;;;;;;12.50;10.45;;;23.10;60.80;;;;;;5007591;28;20050;-85
2022/04/15 08:55:58;;;;;;;15.45;10.30;;;23.60;61.50;;;;;;5013482;28;20050;-88
2022/04/15 08:58:48;;;;;;;12.00;9.43;;;23.70;57.10;;;;;;5014652;28;20136;-90
2022/04/15 09:01:45;;;;;;;15.63;11.38;;;24.40;57.10;;;;;;5016648;28;20057;-89
2022/04/15 09:04:35;;;;;;;13.38;10.80;;;25.20;52.90;;;;;;5006546;28;20042;-89
2022/04/15 09:07:22;;;;;;;14.05;10.98;;;25.10;53.60;;;;;;5018738;28;20041;-84
2022/04/15 09:10:11;;;;;;;16.17;12.50;;;24.90;54.70;;;;;;5019978;28;20447;-88
2022/04/15 09:13:01;;;;;;;13.55;10.40;;;24.50;54.90;;;;;;5018490;28;20061;-86
2022/04/15 09:15:55;;;;;;;18.05;12.80;;;23.90;54.70;;;;;;5018341;28;20054;-86
2022/04/15 09:18:42;;;;;;;12.35;10.48;;;23.00;53.80;;;;;;5022519;28;20056;-85
2022/04/15 09:21:30;;;;;;;12.52;11.13;;;22.70;56.60;;;;;;5026218;28;20124;-85
2022/04/15 09:24:34;;;;;;;12.77;10.15;;;22.80;56.30;;;;;;5024629;28;20053;-86
2022/04/15 09:27:25;;;;;;;13.88;10.95;;;22.40;56.40;;;;;;5003415;28;20042;-89
2022/04/15 09:30:16;;;;;;;14.45;11.32;;;21.80;59.10;;;;;;5014127;28;20050;-89
2022/04/15 09:33:04;;;;;;;14.95;11.45;;;21.30;59.40;;;;;;5017558;28;20065;-86
2022/04/15 09:35:57;;;;;;;13.48;11.80;;;20.90;60.90;;;;;;5010127;28;20049;-84
2022/04/15 09:38:49;;;;;;;14.63;11.02;;;20.20;64.00;;;;;;5008114;28;20057;-85
2022/04/15 09:41:40;;;;;;;15.18;11.80;;;20.40;64.40;;;;;;5014695;28;20042;-88
2022/04/15 09:44:31;;;;;;;14.55;10.10;;;21.80;63.30;;;;;;4985426;28;20157;-89
2022/04/15 09:47:21;;;;;;;13.88;10.23;;;23.00;61.70;;;;;;4998239;28;20050;-86
2022/04/15 09:50:28;;;;;;;14.52;10.63;;;23.50;56.50;;;;;;5005969;28;20068;-82
2022/04/15 09:53:20;;;;;;;13.05;9.95;;;23.90;54.00;;;;;;5016459;28;20053;-85
2022/04/15 09:56:09;;;;;;;11.25;8.40;;;24.50;49.90;;;;;;5006025;28;20359;-86
2022/04/15 09:59:03;;;;;;;11.43;8.65;;;24.80;51.00;;;;;;5007455;28;20058;-85
2022/04/15 10:02:05;;;;;;;13.73;9.57;;;25.50;50.60;;;;;;4997402;28;20328;-86
2022/04/15 10:04:59;;;;;;;17.92;11.98;;;24.70;51.50;;;;;;5010322;28;20682;-86
2022/04/15 10:07:50;;;;;;;13.95;10.80;;;23.40;52.30;;;;;;5006415;28;20049;-87
2022/04/15 10:10:47;;;;;;;14.07;11.57;;;22.70;56.40;;;;;;4999466;28;20053;-86
2022/04/15 10:13:36;;;;;;;15.18;11.60;;;22.90;53.70;;;;;;5002713;28;20476;-87
2022/04/15 10:16:25;;;;;;;10.63;8.68;;;23.90;51.80;;;;;;5018290;28;20439;-87
2022/04/15 10:19:20;;;;;;;11.98;8.50;;;24.30;52.10;;;;;;5017363;28;20050;-88
2022/04/15 10:22:15;;;;;;;10.35;7.63;;;24.70;48.70;;;;;;5000067;28;20121;-85
2022/04/15 10:25:04;;;;;;;10.77;8.00;;;24.80;45.20;;;;;;5019088;28;20041;-88
2022/04/15 10:27:51;;;;;;;11.77;7.82;;;23.70;49.40;;;;;;5005541;28;20042;-87
2022/04/15 10:30:44;;;;;;;8.05;6.40;;;24.50;47.90;;;;;;5016317;28;20482;-88
2022/04/15 10:33:33;;;;;;;6.72;5.68;;;24.60;45.90;;;;;;5015279;28;20053;-88
2022/04/15 10:36:24;;;;;;;7.85;6.20;;;23.80;47.10;;;;;;5018216;28;20057;-87
2022/04/15 10:39:18;;;;;;;9.40;7.40;;;23.20;47.80;;;;;;5028028;28;20491;-88
2022/04/15 10:42:38;;;;;;;9.07;6.95;;;23.60;48.90;;;;;;5030704;28;20045;-86
2022/04/15 10:45:29;;;;;;;8.23;6.40;;;24.10;49.00;;;;;;5036174;28;20034;-84
2022/04/15 10:48:33;;;;;;;10.23;7.15;;;24.70;47.40;;;;;;5035226;28;20057;-83
2022/04/15 10:51:32;;;;;;;7.85;5.55;;;24.70;48.70;;;;;;5026462;28;20035;-86
2022/04/15 10:54:39;;;;;;;7.53;4.27;;;24.70;49.10;;;;;;5035340;28;20042;-88
2022/04/15 10:57:35;;;;;;;6.72;5.20;;;25.00;44.30;;;;;;5035688;28;20046;-83
2022/04/15 11:03:32;;;;;;;8.50;6.38;;;25.90;40.30;;;;;;5014190;28;20054;-85
2022/04/15 11:06:28;;;;;;;9.88;8.15;;;26.10;42.30;;;;;;5010248;28;20082;-89
2022/04/15 11:09:26;;;;;;;7.82;6.18;;;25.80;44.40;;;;;;5012494;28;21510;-89
2022/04/15 11:12:13;;;;;;;9.50;6.13;;;25.40;44.70;;;;;;5013335;28;20051;-84
2022/04/15 11:15:02;;;;;;;7.70;6.88;;;24.30;47.40;;;;;;5012378;28;20046;-90
2022/04/15 11:17:53;;;;;;;11.00;7.82;;;23.50;48.40;;;;;;5014609;28;20738;-89
2022/04/15 11:20:44;;;;;;;9.75;7.50;;;23.60;50.80;;;;;;5008680;28;20065;-88
2022/04/15 11:23:34;;;;;;;10.23;6.30;;;24.00;53.20;;;;;;5015268;28;20038;-87
2022/04/15 11:26:26;;;;;;;7.97;5.43;;;24.70;47.70;;;;;;4998896;28;20046;-88
2022/04/15 11:29:14;;;;;;;8.63;5.38;;;24.70;48.00;;;;;;5012247;28;20042;-86
2022/04/15 11:32:07;;;;;;;8.68;5.95;;;24.40;49.20;;;;;;5002538;28;20058;-87
2022/04/15 11:35:02;;;;;;;10.02;6.13;;;24.80;46.70;;;;;;5006783;28;20906;-89
2022/04/15 11:37:49;;;;;;;7.05;5.18;;;24.70;46.20;;;;;;5017685;28;20050;-88
2022/04/15 11:40:39;;;;;;;9.68;5.40;;;25.00;45.40;;;;;;5015564;28;20054;-87
2022/04/15 11:43:26;;;;;;;5.55;4.45;;;25.10;46.50;;;;;;5005558;28;20039;-87
2022/04/15 11:46:14;;;;;;;6.22;4.28;;;25.70;47.10;;;;;;5009427;28;20388;-86
2022/04/15 11:49:12;;;;;;;5.32;4.10;;;26.50;42.50;;;;;;5007508;28;20064;-85
2022/04/15 11:52:02;;;;;;;7.10;4.10;;;27.40;39.50;;;;;;5012345;28;20042;-87
2022/04/15 11:54:50;;;;;;;5.50;4.47;;;28.10;38.90;;;;;;5008357;28;20189;-86
2022/04/15 11:57:37;;;;;;;5.57;4.43;;;27.90;42.10;;;;;;5015388;28;20053;-88
2022/04/15 12:00:25;;;;;;;4.57;3.38;;;27.80;37.60;;;;;;5015488;28;20117;-88
2022/04/15 12:03:15;;;;;;;6.18;3.20;;;27.80;36.00;;;;;;5010370;28;20045;-87
2022/04/15 12:06:06;;;;;;;4.53;3.25;;;27.70;37.80;;;;;;5004315;28;20050;-89
2022/04/15 12:09:02;;;;;;;4.63;2.60;;;27.00;38.80;;;;;;5016208;28;20048;-85
2022/04/15 12:12:07;;;;;;;4.10;3.03;;;27.30;39.70;;;;;;5005229;28;20050;-88
2022/04/15 12:15:01;;;;;;;7.53;5.22;;;27.40;39.00;;;;;;5013402;28;20049;-86
2022/04/15 12:17:49;;;;;;;7.15;5.18;;;26.00;40.30;;;;;;5015365;28;20120;-87
2022/04/15 12:20:40;;;;;;;8.93;4.88;;;25.70;41.70;;;;;;5009178;28;20054;-88
2022/04/15 12:23:28;;;;;;;6.05;4.68;;;25.80;41.30;;;;;;5016653;28;20038;-88
2022/04/15 12:26:18;;;;;;;8.27;5.05;;;25.70;42.40;;;;;;5013340;28;20060;-90
2022/04/15 12:32:15;;;;;;;10.60;7.25;;;26.40;40.10;;;;;;5012657;28;20342;-85
2022/04/15 12:35:05;;;;;;;11.60;8.10;;;26.70;43.40;;;;;;5006720;28;20160;-88
2022/04/15 12:38:00;;;;;;;8.93;6.90;;;26.10;41.00;;;;;;5015751;28;20050;-88
2022/04/15 12:40:47;;;;;;;11.18;7.00;;;26.00;41.50;;;;;;5015533;28;20050;-89
2022/04/15 12:43:34;;;;;;;7.97;5.90;;;25.30;43.20;;;;;;5015415;28;20041;-89
2022/04/15 12:46:22;;;;;;;7.18;5.40;;;24.80;42.80;;;;;;5019021;28;20073;-88
2022/04/15 12:49:24;;;;;;;7.28;4.85;;;25.80;40.40;;;;;;5015002;28;20104;-91
2022/04/15 12:52:19;;;;;;;7.68;5.00;;;26.30;40.20;;;;;;5012839;28;20061;-89
2022/04/15 12:55:10;;;;;;;8.00;5.30;;;27.20;41.60;;;;;;5003669;28;20056;-87
2022/04/15 12:57:59;;;;;;;10.05;5.40;;;26.20;40.10;;;;;;5007552;28;20104;-87
2022/04/15 13:00:50;;;;;;;11.02;5.38;;;26.50;41.30;;;;;;5016427;28;20042;-89
2022/04/15 13:03:54;;;;;;;8.20;5.53;;;26.60;39.30;;;;;;5009866;28;20073;-88
2022/04/15 13:06:42;;;;;;;6.97;5.03;;;25.40;41.40;;;;;;5000334;28;20105;-87
2022/04/15 13:09:31;;;;;;;7.10;6.30;;;25.00;41.50;;;;;;5012552;28;20053;-87
2022/04/15 13:12:20;;;;;;;10.23;6.87;;;24.40;42.70;;;;;;5018039;28;20042;-88
2022/04/15 13:15:13;;;;;;;9.15;6.95;;;24.20;45.40;;;;;;5020986;28;20046;-89
2022/04/15 13:18:01;;;;;;;9.15;7.30;;;25.00;41.70;;;;;;5019820;28;20443;-86
2022/04/15 13:20:50;;;;;;;7.38;6.28;;;25.00;43.60;;;;;;5017230;28;20062;-89
2022/04/15 13:23:38;;;;;;;10.05;6.65;;;24.40;44.20;;;;;;5013147;28;20116;-87
2022/04/15 13:26:25;;;;;;;10.32;6.50;;;24.00;45.90;;;;;;5013726;28;20056;-87
2022/04/15 13:29:12;;;;;;;8.02;6.28;;;23.50;45.50;;;;;;5015096;28;20042;-87
2022/04/15 13:32:01;;;;;;;7.40;5.78;;;23.30;47.30;;;;;;5004581;28;20046;-89
2022/04/15 13:34:49;;;;;;;7.63;5.63;;;23.20;45.30;;;;;;5000038;28;20039;-89
2022/04/15 13:37:36;;;;;;;9.40;5.25;;;23.40;44.20;;;;;;5004439;28;20058;-90
2022/04/15 13:40:25;;;;;;;10.45;5.90;;;23.30;45.00;;;;;;5003376;28;20061;-91
2022/04/15 13:43:16;;;;;;;7.93;5.65;;;23.50;46.90;;;;;;5009930;28;20060;-89
2022/04/15 13:46:05;;;;;;;8.50;6.05;;;24.20;42.60;;;;;;5017497;28;20112;-85
2022/04/15 13:48:59;;;;;;;13.30;6.07;;;24.30;43.00;;;;;;5010810;28;20057;-91
2022/04/15 13:51:48;;;;;;;10.45;6.18;;;24.00;45.00;;;;;;5011844;28;20061;-88
2022/04/15 13:57:45;;;;;;;8.35;5.40;;;23.60;44.40;;;;;;5020163;28;20053;-82
2022/04/15 14:00:32;;;;;;;11.75;6.35;;;24.10;44.00;;;;;;5030461;28;20038;-86
2022/04/15 14:03:19;;;;;;;7.50;6.60;;;24.20;43.70;;;;;;5024188;28;20049;-86
2022/04/15 14:06:07;;;;;;;9.27;6.10;;;24.30;45.20;;;;;;5027186;28;20501;-91
2022/04/15 14:08:54;;;;;;;10.07;6.45;;;24.10;45.30;;;;;;5015186;28;20066;-90
2022/04/15 14:11:44;;;;;;;10.30;6.05;;;24.10;44.00;;;;;;5005283;28;20050;-87
2022/04/15 14:14:32;;;;;;;8.93;6.05;;;23.80;44.10;;;;;;5010581;28;20042;-85
2022/04/15 14:17:20;;;;;;;8.32;6.07;;;23.10;46.90;;;;;;5012834;28;20065;-87
2022/04/15 14:20:09;;;;;;;11.85;5.30;;;23.50;46.70;;;;;;5018795;28;20053;-88
2022/04/15 14:22:57;;;;;;;6.38;4.78;;;24.00;45.00;;;;;;5014898;28;20050;-86
2022/04/15 14:25:44;;;;;;;8.95;6.65;;;25.00;43.50;;;;;;5003448;28;20919;-89
2022/04/15 14:28:35;;;;;;;9.23;6.13;;;25.10;42.90;;;;;;5013466;28;20082;-86
2022/04/15 14:31:23;;;;;;;8.93;6.03;;;25.00;43.40;;;;;;5023633;28;20045;-89
2022/04/15 14:34:11;;;;;;;6.93;5.38;;;25.30;44.70;;;;;;5011062;28;20534;-86
2022/04/15 14:37:01;;;;;;;8.40;6.07;;;26.00;41.90;;;;;;5015999;28;20072;-88
2022/04/15 14:39:52;;;;;;;8.35;5.85;;;25.30;41.10;;;;;;5015609;28;20042;-88
2022/04/15 14:42:40;;;;;;;8.25;5.10;;;24.60;41.70;;;;;;5000072;28;20043;-88
2022/04/15 14:45:28;;;;;;;11.68;5.68;;;24.30;45.30;;;;;;5008137;28;20043;-88
2022/04/15 14:48:16;;;;;;;8.57;5.35;;;23.50;45.00;;;;;;5011846;28;20058;-85
2022/04/15 14:51:29;;;;;;;10.25;4.70;;;22.80;45.50;;;;;;5004590;28;20038;-88
2022/04/15 14:54:16;;;;;;;;;;;23.40;45.70;;;;;;5013688;28;20054;-89